Huvudsida
METAR-TAF:

METAR-TAF

Flygplatser :

Palermo, Italien

latitud: 38-11N, longitud: 013-06E, höjd: 21 m

Aktuellt väderrapport

Denna rapport gjordes för 52 minuter sedan, klockan 06:50 UTC
Vind 11 kt från ost
Temperatur 12°C
Fuktighet 71%
Tryck 1027 hPa
Sikt 10 km eller mer
Få moln på en höjd av 2000 ft

METAR: LICJ 220650Z 08011KT 9999 FEW020 12/07 Q1027

Tid: 08:42 (07:42 UTC)

Väderprognos

Denna rapport gjordes för 2 timmar och 42 minuter sedan, klockan 05:00 UTC
Prognos gäller från 22 kl. 06 UTC till 23 kl. 06 UTC
Vind 5 kt varierande vindriktning
Sikt 10 km eller mer
Inga moln under 1 500 m eller inga cumulonimbus
Blir
från 22 kl. 09 UTC till 22 kl. 11 UTC
Vind 15 kt från nord/nordost
Blir
från 22 kl. 20 UTC till 22 kl. 22 UTC
Vind 6 kt från syd

TAF: LICJ 220500Z 2206/2306 VRB05KT CAVOK BECMG 2209/2211 03015KT BECMG 2220/2222 18006KT

Aktuella väderrapporter och prognoser från 4000 flygplatser (METAR- och TAF-rapporter).

De tillgängliga stationerna syns som gula och röda prickar på kartan.

För musen över prickarna för att se namnen på stationerna.

Klicka sedan för att få väderrapporter och prognoser.

För att ändra kartan: Klicka på de gröna knapparna med ett svart kors på för att zooma in; den gröna knappen med ett streck på för att zooma ut; eller på de gröna pilarna för angränsande kartor.


METAR-TAF: